sensor_id;sensor_type;location;lat;lon;timestamp;temperature;humidity
10010;DHT22;5044;48.652;9.250;2023-10-19T12:39:23;15.00;99.90
10010;DHT22;5044;48.652;9.250;2023-10-19T12:42:14;15.00;99.90
10010;DHT22;5044;48.652;9.250;2023-10-19T12:44:45;14.70;99.90
10010;DHT22;5044;48.652;9.250;2023-10-19T12:47:12;15.10;99.90
10010;DHT22;5044;48.652;9.250;2023-10-19T12:52:24;15.20;99.90
10010;DHT22;5044;48.652;9.250;2023-10-19T12:54:54;15.20;99.90
10010;DHT22;5044;48.652;9.250;2023-10-19T12:57:24;15.20;99.90
10010;DHT22;5044;48.652;9.250;2023-10-19T12:59:52;15.20;99.90
10010;DHT22;5044;48.652;9.250;2023-10-19T13:02:33;15.10;99.90
10010;DHT22;5044;48.652;9.250;2023-10-19T13:22:03;15.60;99.90
10010;DHT22;5044;48.652;9.250;2023-10-19T13:31:54;15.70;99.90
10010;DHT22;5044;48.652;9.250;2023-10-19T13:34:35;15.50;99.90
10010;DHT22;5044;48.652;9.250;2023-10-19T13:37:22;16.20;99.90
10010;DHT22;5044;48.652;9.250;2023-10-19T13:39:53;15.80;99.90
10010;DHT22;5044;48.652;9.250;2023-10-19T13:42:23;15.70;99.90
10010;DHT22;5044;48.652;9.250;2023-10-19T13:44:55;15.60;99.90
10010;DHT22;5044;48.652;9.250;2023-10-19T13:47:42;15.60;99.90
10010;DHT22;5044;48.652;9.250;2023-10-19T13:50:52;15.60;99.90
10010;DHT22;5044;48.652;9.250;2023-10-19T13:53:43;15.60;99.90
10010;DHT22;5044;48.652;9.250;2023-10-19T13:56:19;15.60;99.90
10010;DHT22;5044;48.652;9.250;2023-10-19T13:59:00;15.60;99.90
10010;DHT22;5044;48.652;9.250;2023-10-19T14:01:42;15.40;99.90
10010;DHT22;5044;48.652;9.250;2023-10-19T14:04:54;15.80;99.90
10010;DHT22;5044;48.652;9.250;2023-10-19T14:07:49;15.70;99.90
10010;DHT22;5044;48.652;9.250;2023-10-19T14:14:00;15.70;99.90
10010;DHT22;5044;48.652;9.250;2023-10-19T14:16:37;15.70;99.90
10010;DHT22;5044;48.652;9.250;2023-10-19T14:19:26;15.70;99.90
10010;DHT22;5044;48.652;9.250;2023-10-19T14:21:56;15.70;99.90
10010;DHT22;5044;48.652;9.250;2023-10-19T14:24:31;15.60;99.90
10010;DHT22;5044;48.652;9.250;2023-10-19T14:27:05;15.50;99.90
10010;DHT22;5044;48.652;9.250;2023-10-19T14:29:59;15.70;99.90
10010;DHT22;5044;48.652;9.250;2023-10-19T14:32:35;15.60;99.90
10010;DHT22;5044;48.652;9.250;2023-10-19T14:35:09;15.60;99.90
10010;DHT22;5044;48.652;9.250;2023-10-19T14:37:55;15.60;99.90
10010;DHT22;5044;48.652;9.250;2023-10-19T14:40:37;15.60;99.90
10010;DHT22;5044;48.652;9.250;2023-10-19T14:43:21;15.40;99.90
10010;DHT22;5044;48.652;9.250;2023-10-19T14:46:13;15.50;99.90
10010;DHT22;5044;48.652;9.250;2023-10-19T14:48:53;15.50;99.90
10010;DHT22;5044;48.652;9.250;2023-10-19T14:51:27;15.60;99.90
10010;DHT22;5044;48.652;9.250;2023-10-19T14:54:51;15.50;99.90
10010;DHT22;5044;48.652;9.250;2023-10-19T15:00:37;15.30;99.90
10010;DHT22;5044;48.652;9.250;2023-10-19T15:03:23;15.50;99.90
10010;DHT22;5044;48.652;9.250;2023-10-19T15:06:09;15.50;99.90
10010;DHT22;5044;48.652;9.250;2023-10-19T15:08:59;15.50;99.90
10010;DHT22;5044;48.652;9.250;2023-10-19T15:11:43;15.60;99.90
10010;DHT22;5044;48.652;9.250;2023-10-19T15:14:23;15.70;99.90
10010;DHT22;5044;48.652;9.250;2023-10-19T15:16:58;15.60;99.90
10010;DHT22;5044;48.652;9.250;2023-10-19T15:19:42;15.70;99.90
10010;DHT22;5044;48.652;9.250;2023-10-19T15:22:32;15.60;99.90
10010;DHT22;5044;48.652;9.250;2023-10-19T15:25:11;15.70;99.90
10010;DHT22;5044;48.652;9.250;2023-10-19T15:27:50;15.60;99.90
10010;DHT22;5044;48.652;9.250;2023-10-19T15:30:37;15.60;99.90
10010;DHT22;5044;48.652;9.250;2023-10-19T15:33:15;15.60;99.90
10010;DHT22;5044;48.652;9.250;2023-10-19T15:35:56;15.60;99.90
10010;DHT22;5044;48.652;9.250;2023-10-19T15:38:37;15.60;99.90
10010;DHT22;5044;48.652;9.250;2023-10-19T15:41:11;15.50;99.90
10010;DHT22;5044;48.652;9.250;2023-10-19T15:43:51;15.50;99.90
10010;DHT22;5044;48.652;9.250;2023-10-19T15:46:26;15.50;99.90
10010;DHT22;5044;48.652;9.250;2023-10-19T15:49:04;15.90;99.90
10010;DHT22;5044;48.652;9.250;2023-10-19T15:51:43;15.50;99.90
10010;DHT22;5044;48.652;9.250;2023-10-19T15:57:15;15.30;99.90
10010;DHT22;5044;48.652;9.250;2023-10-19T15:59:54;15.50;99.90
10010;DHT22;5044;48.652;9.250;2023-10-19T16:02:25;15.40;99.90
10010;DHT22;5044;48.652;9.250;2023-10-19T16:04:59;15.40;99.90
